Flight Track Log - Related Links

Times and Time Zones

All times are in EST time to prevent confusion due to time zone crossing. See the LOF5285 flight status page for this flight to view local times or setup timezone preferences in your user account.

Time Position Orientation Groundspeed Altitude Reporting Facility
EST Latitude Longitude Course Direction KTS MPH feet Rate Location/Type
Fri 09:06:23 PM 41.3906 -81.8808 243° Southwest 165 190 1,800  Level Cleveland Center
Fri 09:06:59 PM 41.3767 -81.9175 243° Southwest 191 220 2,700 1,313 Climbing Cleveland Center
Fri 09:07:27 PM 41.3708 -81.9442 254° West 200 230 3,200 2,200 Climbing Cleveland Center
Fri 09:08:29 PM 41.3794 -82.0308 278° West 226 260 6,000 2,341 Climbing Cleveland Center
Fri 09:09:30 PM 41.3706 -82.1197 262° West 236 272 8,000 1,951 Climbing Cleveland Center
Fri 09:10:32 PM 41.3356 -82.2064 242° Southwest 262 302 10,000 1,561 Climbing Cleveland Center
Fri 09:11:33 PM 41.2964 -82.2972 240° Southwest 278 320 11,200 1,805 Climbing Cleveland Center
Fri 09:12:35 PM 41.2478 -82.4081 240° Southwest 294 338 13,700 3,024 Climbing Cleveland Center
Fri 09:13:36 PM 41.2131 -82.4872 240° Southwest 239 275 17,400 2,488 Climbing Cleveland Center
Fri 09:14:38 PM 41.1836 -82.5581 241° Southwest 220 253 18,800 829 Climbing Cleveland Center
Fri 09:15:39 PM 41.1506 -82.6372 241° Southwest 241 277 19,100 732 Climbing Cleveland Center
Fri 09:16:41 PM 41.1108 -82.7272 240° Southwest 274 315 20,300 1,268 Climbing Cleveland Center
Fri 09:17:42 PM 41.0939 -82.8286 258° West 278 320 21,700 1,415 Climbing Cleveland Center
Fri 09:18:44 PM 41.0800 -82.9272 259° West 276 318 23,200 1,415 Climbing Cleveland Center
Fri 09:19:45 PM 41.0531 -83.0197 249° West 271 312 24,600 1,317 Climbing Cleveland Center
Fri 09:20:47 PM 41.0217 -83.1083 245° Southwest 266 306 25,900 1,122 Climbing Cleveland Center
Fri 09:21:48 PM 40.9919 -83.1950 246° West 266 306 26,900 1,024 Climbing Cleveland Center
Fri 09:22:50 PM 40.9556 -83.2969 245° Southwest 258 297 28,000 537 Climbing Cleveland Center
Fri 09:23:51 PM 40.9231 -83.3900 245° Southwest 274 315 28,000  Level Cleveland Center
Fri 09:24:52 PM 40.8881 -83.4883 245° Southwest 293 337 28,000  Level Cleveland Center
Fri 09:25:45 PM 40.8592 -83.5717 245° Southwest 308 354 28,000  Level Indianapolis Center
Fri 09:26:46 PM 40.8214 -83.6750 244° Southwest 313 360 28,000  Level Indianapolis Center
Fri 09:27:48 PM 40.7839 -83.7806 245° Southwest 318 366 28,000  Level Indianapolis Center
Fri 09:28:49 PM 40.7378 -83.9097 245° Southwest 324 373 28,000  Level Indianapolis Center
Fri 09:29:50 PM 40.6992 -84.0172 245° Southwest 324 373 28,000  Level Indianapolis Center
Fri 09:30:51 PM 40.6589 -84.1253 244° Southwest 328 377 28,000  Level Indianapolis Center
Fri 09:31:52 PM 40.6203 -84.2336 245° Southwest 328 377 28,000  Level Indianapolis Center
Fri 09:32:53 PM 40.5811 -84.3428 245° Southwest 330 380 28,000  Level Indianapolis Center
Fri 09:33:54 PM 40.5411 -84.4514 244° Southwest 332 382 28,000  Level Indianapolis Center
Fri 09:34:55 PM 40.5008 -84.5600 244° Southwest 332 382 28,000  Level Indianapolis Center
Fri 09:35:56 PM 40.4611 -84.6681 244° Southwest 332 382 28,000  Level Indianapolis Center
Fri 09:36:58 PM 40.4206 -84.7767 244° Southwest 331 381 28,000  Level Indianapolis Center
Fri 09:37:59 PM 40.3722 -84.9072 244° Southwest 333 383 28,000  Level Indianapolis Center
Fri 09:39:00 PM 40.3300 -85.0192 244° Southwest 334 384 28,000  Level Indianapolis Center
Fri 09:40:01 PM 40.2894 -85.1278 244° Southwest 333 383 28,000  Level Indianapolis Center
Fri 09:41:02 PM 40.2481 -85.2364 243° Southwest 335 386 28,000  Level Indianapolis Center
Fri 09:42:03 PM 40.2078 -85.3447 244° Southwest 334 384 28,000  Level Indianapolis Center
Fri 09:43:04 PM 40.1661 -85.4536 243° Southwest 335 386 28,000  Level Indianapolis Center
Fri 09:44:05 PM 40.1253 -85.5628 244° Southwest 337 388 28,000  Level Indianapolis Center
Fri 09:45:06 PM 40.0833 -85.6714 243° Southwest 336 387 28,000  Level Indianapolis Center
Fri 09:46:07 PM 40.0422 -85.7794 244° Southwest 336 387 28,000  Level Indianapolis Center
Fri 09:47:09 PM 40.0003 -85.8881 243° Southwest 337 388 28,000  Level Indianapolis Center
Fri 09:48:10 PM 39.9592 -85.9967 244° Southwest 336 387 28,000  Level Indianapolis Center
Fri 09:49:11 PM 39.9094 -86.1256 243° Southwest 336 387 28,000  Level Indianapolis Center
Fri 09:50:12 PM 39.8669 -86.2333 243° Southwest 337 388 28,000  Level Indianapolis Center
Fri 09:51:13 PM 39.8258 -86.3386 243° Southwest 337 388 28,000  Level Indianapolis Center
Fri 09:52:14 PM 39.7950 -86.4494 250° West 335 386 28,000  Level Indianapolis Center
Fri 09:53:15 PM 39.7669 -86.5642 252° West 338 389 28,000  Level Indianapolis Center
Fri 09:54:17 PM 39.7383 -86.6789 252° West 337 388 28,000  Level Indianapolis Center
Fri 09:55:18 PM 39.7036 -86.8169 252° West 336 387 28,000  Level Indianapolis Center
Fri 09:56:19 PM 39.6758 -86.9319 253° West 336 387 28,000  Level Indianapolis Center
Fri 09:57:20 PM 39.6472 -87.0472 252° West 337 388 28,000  Level Indianapolis Center
Fri 09:58:21 PM 39.6172 -87.1631 251° West 339 390 28,000  Level Indianapolis Center
Fri 09:59:22 PM 39.5883 -87.2781 252° West 337 388 28,000  Level Indianapolis Center
Fri 10:00:23 PM 39.5592 -87.3944 252° West 341 392 28,000  Level Indianapolis Center
Fri 10:01:24 PM 39.5294 -87.5097 252° West 339 390 28,000  Level Indianapolis Center
Fri 10:02:26 PM 39.4994 -87.6275 252° West 344 396 28,000  Level Indianapolis Center
Fri 10:03:27 PM 39.4697 -87.7436 252° West 344 396 28,000  Level Indianapolis Center
Fri 10:04:28 PM 39.4342 -87.8819 252° West 340 391 28,000  Level Indianapolis Center
Fri 10:05:29 PM 39.4042 -87.9969 251° West 340 391 28,000  Level Indianapolis Center
Fri 10:06:30 PM 39.3750 -88.1119 252° West 339 390 28,000  Level Indianapolis Center
Fri 10:07:31 PM 39.3464 -88.2294 253° West 345 397 28,000  Level Indianapolis Center
Fri 10:08:32 PM 39.3175 -88.3456 252° West 341 392 28,000  Level Indianapolis Center
Fri 10:09:33 PM 39.2883 -88.4606 252° West 339 390 28,000  Level Indianapolis Center
Fri 10:10:34 PM 39.2603 -88.5747 252° West 334 384 28,000  Level Indianapolis Center
Fri 10:11:35 PM 39.2314 -88.6903 252° West 337 388 28,000  Level Indianapolis Center
Fri 10:12:36 PM 39.2014 -88.8056 251° West 338 389 28,000 -98 Level Indianapolis Center
Fri 10:13:37 PM 39.1714 -88.9208 251° West 339 390 27,800 -1,131 Descending Indianapolis Center
Fri 10:14:38 PM 39.1417 -89.0397 252° West 345 397 25,700 -2,557 Descending Indianapolis Center
Fri 10:15:39 PM 39.1097 -89.1603 251° West 351 404 22,600 -2,852 Descending Indianapolis Center
Fri 10:16:40 PM 39.0797 -89.2728 251° West 339 390 19,900 -2,656 Descending Indianapolis Center
Fri 10:17:41 PM 39.0464 -89.4114 253° West 336 387 17,200 -2,330 Descending Indianapolis Center
Fri 10:18:23 PM 39.0167 -89.4833 242° Southwest 334 384 15,900 -1,448 Descending Gateway (St. Louis) TRACON
Fri 10:19:08 PM 39.0047 -89.5636 259° West 331 381 15,100 -505 Descending Kansas City Center
Fri 10:20:10 PM 38.9736 -89.6703 249° West 323 372 15,000 -49 Descending Kansas City Center
Fri 10:21:11 PM 38.9389 -89.7783 248° West 325 374 15,000 -151 Level Kansas City Center
Fri 10:22:09 PM 38.9036 -89.8878 248° West 331 381 14,700 -958 Descending Kansas City Center
Fri 10:23:10 PM 38.8700 -89.9936 248° West 326 375 13,100 -1,742 Descending Kansas City Center
Fri 10:24:13 PM 38.8381 -90.0956 248° West 315 362 11,100 -1,500 Descending Kansas City Center
Fri 10:25:14 PM 38.8097 -90.1844 248° West 279 321 10,000 -1,475 Descending Kansas City Center
Fri 10:26:15 PM 38.8261 -90.2594 286° West 249 287 8,100 -1,800 Descending Kansas City Center
Fri 10:27:14 PM 38.8678 -90.3456 302° West 243 280 6,400 -1,041 Descending Kansas City Center
Fri 10:28:16 PM 38.8992 -90.4150 300° West 235 270 6,000 -195 Descending Kansas City Center
Fri 10:29:17 PM 38.9308 -90.4856 300° West 231 266 6,000 -793 Level Kansas City Center
Fri 10:30:17 PM 38.9542 -90.5533 294° West 228 262 4,400 -1,230 Descending Kansas City Center
Fri 10:31:19 PM 38.9089 -90.6000 219° Southwest 220 253 3,500 -439 Descending Kansas City Center
Fri 10:32:20 PM 38.8661 -90.5894 169° South 193 222 3,500  Level Kansas City Center
Fri 10:33:19 PM 38.8319 -90.5500 138° Southeast 174 200 3,500 -492 Level Kansas City Center
Fri 10:34:22 PM 38.8061 -90.5036 126° Southeast 163 188 2,500 -893 Descending Kansas City Center
Fri 10:35:20 PM 38.7867 -90.4642 122° Southeast 147 169 1,700 -738 Descending Kansas City Center
Fri 10:36:24 PM 38.7681 -90.4272 123° Southeast 132 152 1,000 -492 Descending Kansas City Center
Fri 10:37:22 PM 38.7461 -90.3808 121° Southeast 131 151 700 -310 Descending Kansas City Center

Login

Don't have an account? Register now (free) for customized features, flight alerts, and more!